createdAt,value
2018-03-24T00:01:44.863Z,4.30
2018-03-24T00:04:12.501Z,4.30
2018-03-24T00:06:40.121Z,4.20
2018-03-24T00:09:07.853Z,3.90
2018-03-24T00:11:35.477Z,3.80
2018-03-24T00:14:03.097Z,3.50
2018-03-24T00:16:31.684Z,3.30
2018-03-24T00:19:00.069Z,3.30
2018-03-24T00:21:27.684Z,3.30
2018-03-24T00:23:55.313Z,3.20
2018-03-24T00:26:22.937Z,3.20
2018-03-24T00:28:50.564Z,3.00
2018-03-24T00:31:18.192Z,3.00
2018-03-24T00:33:45.817Z,3.10
2018-03-24T00:36:13.525Z,3.10
2018-03-24T00:38:41.921Z,2.90
2018-03-24T00:41:10.317Z,3.10
2018-03-24T00:43:37.932Z,3.00
2018-03-24T00:46:05.568Z,3.10
2018-03-24T00:48:33.196Z,3.10
2018-03-24T00:51:00.829Z,3.10
2018-03-24T00:53:28.441Z,3.00
2018-03-24T00:55:56.833Z,2.80
2018-03-24T00:58:24.472Z,2.80
2018-03-24T01:00:53.885Z,2.60
2018-03-24T01:03:22.274Z,2.60
2018-03-24T01:05:50.665Z,2.50
2018-03-24T01:08:18.294Z,2.50
2018-03-24T01:10:46.680Z,2.50
2018-03-24T01:13:15.065Z,2.60
2018-03-24T01:15:44.201Z,2.60
2018-03-24T01:18:11.824Z,2.60
2018-03-24T01:20:39.457Z,2.70
2018-03-24T01:23:07.077Z,2.80
2018-03-24T01:25:35.474Z,2.80
2018-03-24T01:28:03.860Z,2.80
2018-03-24T01:30:31.789Z,2.70
2018-03-24T01:32:59.417Z,2.80
2018-03-24T01:35:27.039Z,2.70
2018-03-24T01:37:54.660Z,2.80
2018-03-24T01:40:22.285Z,2.80
2018-03-24T01:42:50.689Z,2.80
2018-03-24T01:45:18.305Z,2.80
2018-03-24T01:47:45.924Z,2.90
2018-03-24T01:50:13.547Z,2.90
2018-03-24T01:52:41.173Z,2.90
2018-03-24T01:55:08.789Z,2.90
2018-03-24T01:57:37.173Z,2.80
2018-03-24T02:00:05.565Z,2.80
2018-03-24T02:02:33.973Z,2.70
2018-03-24T02:05:01.604Z,2.70
2018-03-24T02:07:29.997Z,2.80
2018-03-24T02:09:58.376Z,2.70
2018-03-24T02:12:27.765Z,2.60
2018-03-24T02:14:55.791Z,2.70
2018-03-24T02:17:24.145Z,2.60
2018-03-24T02:19:52.547Z,2.70
2018-03-24T02:22:20.160Z,2.60
2018-03-24T02:24:47.787Z,2.60
2018-03-24T02:27:15.733Z,2.60
2018-03-24T02:29:44.121Z,2.60
2018-03-24T02:32:12.511Z,2.60
2018-03-24T02:34:40.133Z,2.60
2018-03-24T02:37:07.758Z,2.60
2018-03-24T02:39:35.385Z,2.60
2018-03-24T02:42:03.000Z,2.50
2018-03-24T02:44:30.636Z,2.50
2018-03-24T02:46:59.021Z,2.50
2018-03-24T02:49:26.642Z,2.50
2018-03-24T02:51:54.573Z,2.50
2018-03-24T02:54:22.194Z,2.50
2018-03-24T02:56:49.817Z,2.40
2018-03-24T02:59:17.445Z,2.40
2018-03-24T03:01:45.830Z,2.40
2018-03-24T03:04:14.233Z,2.40
2018-03-24T03:06:41.852Z,2.30
2018-03-24T03:09:09.485Z,2.30
2018-03-24T03:11:37.104Z,2.40
2018-03-24T03:14:04.733Z,2.30
2018-03-24T03:16:32.856Z,2.30
2018-03-24T03:19:01.232Z,2.30
2018-03-24T03:24:28.373Z,2.30
2018-03-24T03:26:56.309Z,2.20
2018-03-24T03:29:23.928Z,2.30
2018-03-24T03:31:52.312Z,2.30
2018-03-24T03:34:20.701Z,2.30
2018-03-24T03:36:49.097Z,2.20
2018-03-24T03:39:16.725Z,2.20
2018-03-24T03:41:44.348Z,2.20
2018-03-24T03:44:11.969Z,2.30
2018-03-24T03:46:39.584Z,2.30
2018-03-24T03:49:07.218Z,2.20
2018-03-24T03:51:35.600Z,2.20
2018-03-24T03:54:03.991Z,2.10
2018-03-24T03:56:32.868Z,2.10
2018-03-24T03:59:00.484Z,2.00
2018-03-24T04:01:28.100Z,1.90
2018-03-24T04:03:56.497Z,1.60
2018-03-24T04:06:24.885Z,1.50
2018-03-24T04:08:52.521Z,1.50
2018-03-24T04:11:20.147Z,1.40
2018-03-24T04:13:48.151Z,1.20
2018-03-24T04:16:15.769Z,1.10
2018-03-24T04:18:43.400Z,1.10
2018-03-24T04:21:11.025Z,1.00
2018-03-24T04:23:38.640Z,1.00
2018-03-24T04:26:07.040Z,0.90
2018-03-24T04:28:34.673Z,0.90
2018-03-24T04:31:02.293Z,0.90
2018-03-24T04:33:29.916Z,0.90
2018-03-24T04:35:57.940Z,1.10
2018-03-24T04:38:25.581Z,1.20
2018-03-24T04:40:53.961Z,1.50
2018-03-24T04:43:21.590Z,1.50
2018-03-24T04:45:49.220Z,1.50
2018-03-24T04:48:16.846Z,1.60
2018-03-24T04:50:45.246Z,1.50
2018-03-24T04:53:12.865Z,1.50
2018-03-24T04:55:40.497Z,1.60
2018-03-24T04:58:08.117Z,1.70
2018-03-24T05:00:35.745Z,1.80
2018-03-24T05:03:03.374Z,1.90
2018-03-24T05:05:31.005Z,2.00
2018-03-24T05:07:58.616Z,1.90
2018-03-24T05:10:26.253Z,1.90
2018-03-24T05:12:53.874Z,1.90
2018-03-24T05:15:21.499Z,1.90
2018-03-24T05:17:49.121Z,1.80
2018-03-24T05:20:16.748Z,1.90
2018-03-24T05:22:44.380Z,2.00
2018-03-24T05:25:11.992Z,2.00
2018-03-24T05:27:39.625Z,2.00
2018-03-24T05:30:08.422Z,2.00
2018-03-24T05:32:36.809Z,2.10
2018-03-24T05:35:04.433Z,2.00
2018-03-24T05:37:32.056Z,2.10
2018-03-24T05:39:59.692Z,2.20
2018-03-24T05:42:28.097Z,2.20
2018-03-24T05:44:55.721Z,2.20
2018-03-24T05:47:23.350Z,2.10
2018-03-24T05:49:50.969Z,2.10
2018-03-24T05:52:19.368Z,2.10
2018-03-24T05:54:47.000Z,2.10
2018-03-24T05:57:14.630Z,2.10
2018-03-24T05:59:42.250Z,2.10
2018-03-24T06:02:16.454Z,2.20
2018-03-24T06:04:44.093Z,2.10
2018-03-24T06:07:11.713Z,2.20
2018-03-24T06:09:40.101Z,2.10
2018-03-24T06:12:07.726Z,2.20
2018-03-24T06:14:35.344Z,2.20
2018-03-24T06:17:02.970Z,2.20
2018-03-24T06:19:30.600Z,2.20
2018-03-24T06:21:58.222Z,2.20
2018-03-24T06:24:26.612Z,2.30
2018-03-24T06:26:54.232Z,2.30
2018-03-24T06:29:21.873Z,2.40
2018-03-24T06:31:49.490Z,2.40
2018-03-24T06:34:17.118Z,2.50
2018-03-24T06:36:44.741Z,2.50
2018-03-24T06:39:12.360Z,2.60
2018-03-24T06:41:39.985Z,2.60
2018-03-24T06:44:07.617Z,2.70
2018-03-24T06:46:35.320Z,2.70
2018-03-24T06:49:02.936Z,2.70
2018-03-24T06:51:30.572Z,2.80
2018-03-24T06:53:58.198Z,2.80
2018-03-24T06:56:27.575Z,2.90
2018-03-24T06:58:55.209Z,2.90
2018-03-24T07:01:22.829Z,3.00
2018-03-24T07:03:51.229Z,3.00
2018-03-24T07:06:18.863Z,3.00
2018-03-24T07:08:46.473Z,3.10
2018-03-24T07:11:14.101Z,3.10
2018-03-24T07:13:41.725Z,3.10
2018-03-24T07:16:09.354Z,3.10
2018-03-24T07:18:37.015Z,3.30
2018-03-24T07:21:05.401Z,3.40
2018-03-24T07:23:33.789Z,3.50
2018-03-24T07:26:01.412Z,3.50
2018-03-24T07:28:29.037Z,3.60
2018-03-24T07:30:56.970Z,3.70
2018-03-24T07:33:24.597Z,3.80
2018-03-24T07:35:52.225Z,3.90
2018-03-24T07:38:19.853Z,4.00
2018-03-24T07:40:47.478Z,4.10
2018-03-24T07:43:15.109Z,4.20
2018-03-24T07:45:43.499Z,4.40
2018-03-24T07:48:11.892Z,4.50
2018-03-24T07:50:39.521Z,4.50
2018-03-24T07:53:07.141Z,4.60
2018-03-24T07:55:34.776Z,4.70
2018-03-24T07:58:03.178Z,4.80
2018-03-24T08:00:31.122Z,4.80
2018-03-24T08:02:58.740Z,4.90
2018-03-24T08:05:26.428Z,5.00
2018-03-24T08:07:54.053Z,5.00
2018-03-24T08:10:21.673Z,5.10
2018-03-24T08:12:49.297Z,5.30
2018-03-24T08:15:16.924Z,5.40
2018-03-24T08:17:44.541Z,5.70
2018-03-24T08:20:12.290Z,5.90
2018-03-24T08:22:40.657Z,6.00
2018-03-24T08:25:08.302Z,6.00
2018-03-24T08:27:35.926Z,6.10
2018-03-24T08:30:03.554Z,6.20
2018-03-24T08:32:31.184Z,6.30
2018-03-24T08:34:58.813Z,6.40
2018-03-24T08:37:26.756Z,6.50
2018-03-24T08:39:54.380Z,6.60
2018-03-24T08:42:22.013Z,6.60
2018-03-24T08:44:49.632Z,6.70
2018-03-24T08:47:17.248Z,6.90
2018-03-24T08:49:45.298Z,7.00
2018-03-24T08:52:12.921Z,7.20
2018-03-24T08:54:40.542Z,7.50
2018-03-24T08:57:08.174Z,7.70
2018-03-24T08:59:35.801Z,8.00
2018-03-24T09:02:03.428Z,8.40
2018-03-24T09:04:31.809Z,8.90
2018-03-24T09:06:59.433Z,8.90
2018-03-24T09:09:27.546Z,9.20
2018-03-24T09:11:55.940Z,9.90
2018-03-24T09:14:23.557Z,9.90
2018-03-24T09:16:51.192Z,9.90
2018-03-24T09:19:18.818Z,9.90
2018-03-24T09:21:47.223Z,10.50
2018-03-24T09:24:14.853Z,10.50
2018-03-24T09:26:43.988Z,10.70
2018-03-24T09:29:11.609Z,10.70
2018-03-24T09:31:39.232Z,11.00
2018-03-24T09:34:06.874Z,11.50
2018-03-24T09:36:35.269Z,11.20
2018-03-24T09:39:02.901Z,11.20
2018-03-24T09:41:30.524Z,11.20
2018-03-24T09:43:58.161Z,11.40
2018-03-24T09:46:26.117Z,12.10
2018-03-24T09:48:54.509Z,12.00
2018-03-24T09:51:22.906Z,12.00
2018-03-24T09:53:50.536Z,11.90
2018-03-24T09:56:18.161Z,11.90
2018-03-24T09:58:45.788Z,11.40
2018-03-24T10:01:20.908Z,11.30
2018-03-24T10:03:48.533Z,11.30
2018-03-24T10:06:16.162Z,12.00
2018-03-24T10:08:43.797Z,12.40
2018-03-24T10:11:11.433Z,13.10
2018-03-24T10:13:39.059Z,13.30
2018-03-24T10:16:07.452Z,14.00
2018-03-24T10:18:35.076Z,13.90
2018-03-24T10:24:17.400Z,14.30
2018-03-24T10:26:45.806Z,15.00
2018-03-24T10:29:13.429Z,15.00
2018-03-24T10:31:41.050Z,15.50
2018-03-24T10:34:08.680Z,15.20
2018-03-24T10:36:37.078Z,14.60
2018-03-24T10:39:04.702Z,14.60
2018-03-24T10:41:32.337Z,13.70
2018-03-24T10:44:00.053Z,13.30
2018-03-24T10:46:27.674Z,13.00
2018-03-24T10:48:55.298Z,12.50
2018-03-24T10:51:23.706Z,14.30
2018-03-24T10:53:52.377Z,15.50
2018-03-24T10:56:20.773Z,16.00
2018-03-24T10:58:48.405Z,16.00
2018-03-24T11:01:16.401Z,16.70
2018-03-24T11:03:44.790Z,16.20
2018-03-24T11:06:13.172Z,17.00
2018-03-24T11:08:41.562Z,17.70
2018-03-24T11:11:09.956Z,17.40
2018-03-24T11:13:37.590Z,17.40
2018-03-24T11:16:05.192Z,17.10
2018-03-24T11:18:32.816Z,18.00
2018-03-24T11:21:00.438Z,18.20
2018-03-24T11:23:28.065Z,17.40
2018-03-24T11:25:56.464Z,17.60
2018-03-24T11:28:24.071Z,17.60
2018-03-24T11:30:51.697Z,17.80
2018-03-24T11:33:29.673Z,17.80
2018-03-24T11:35:57.296Z,17.80
2018-03-24T11:38:24.920Z,17.30
2018-03-24T11:40:53.303Z,15.90
2018-03-24T11:43:20.925Z,15.80
2018-03-24T11:45:48.536Z,15.40
2018-03-24T11:48:16.187Z,15.50
2018-03-24T11:50:43.792Z,15.40
2018-03-24T11:53:11.413Z,15.20
2018-03-24T11:55:39.041Z,14.80
2018-03-24T11:58:06.659Z,14.40
2018-03-24T12:00:35.049Z,13.70
2018-03-24T12:03:02.673Z,13.60
2018-03-24T12:05:30.293Z,13.40
2018-03-24T12:07:57.921Z,13.50
2018-03-24T12:10:25.540Z,13.60
2018-03-24T12:12:53.166Z,12.90
2018-03-24T12:15:21.560Z,12.70
2018-03-24T12:17:49.189Z,12.70
2018-03-24T12:20:18.320Z,13.20
2018-03-24T12:22:46.708Z,13.00
2018-03-24T12:25:14.328Z,13.00
2018-03-24T12:27:42.246Z,13.10
2018-03-24T12:30:10.637Z,13.40
2018-03-24T12:32:38.257Z,13.40
2018-03-24T12:35:05.896Z,13.60
2018-03-24T12:37:33.521Z,13.70
2018-03-24T12:40:01.912Z,14.00
2018-03-24T12:42:30.296Z,13.80
2018-03-24T12:44:57.912Z,13.70
2018-03-24T12:47:25.533Z,13.80
2018-03-24T12:49:53.153Z,14.00
2018-03-24T12:52:20.776Z,14.00
2018-03-24T12:54:48.475Z,13.70
2018-03-24T12:57:16.068Z,13.40
2018-03-24T12:59:43.694Z,13.40
2018-03-24T13:02:11.327Z,13.30
2018-03-24T13:04:38.941Z,13.30
2018-03-24T13:07:06.561Z,13.30
2018-03-24T13:09:34.185Z,13.20
2018-03-24T13:12:01.826Z,13.00
2018-03-24T13:14:29.449Z,13.10
2018-03-24T13:16:57.837Z,13.20
2018-03-24T13:19:25.465Z,13.10
2018-03-24T13:21:53.076Z,13.00
2018-03-24T13:24:20.721Z,12.90
2018-03-24T13:26:49.110Z,12.90
2018-03-24T13:29:17.480Z,13.00
2018-03-24T13:31:45.874Z,13.10
2018-03-24T13:34:13.485Z,13.20
2018-03-24T13:36:41.605Z,13.40
2018-03-24T13:39:09.231Z,13.00
2018-03-24T13:41:36.850Z,12.90
2018-03-24T13:44:05.237Z,12.90
2018-03-24T13:46:32.866Z,12.90
2018-03-24T13:49:00.578Z,13.10
2018-03-24T13:51:28.818Z,12.80
2018-03-24T13:53:56.441Z,12.70
2018-03-24T13:56:43.609Z,12.60
2018-03-24T13:59:11.237Z,12.60
2018-03-24T14:01:38.855Z,12.70
2018-03-24T14:04:07.253Z,12.50
2018-03-24T14:06:36.053Z,12.30
2018-03-24T14:09:03.669Z,12.30
2018-03-24T14:11:31.297Z,12.40
2018-03-24T14:14:11.040Z,12.50
2018-03-24T14:16:38.672Z,12.50
2018-03-24T14:19:07.065Z,12.70
2018-03-24T14:21:34.697Z,12.70
2018-03-24T14:24:02.329Z,12.40
2018-03-24T14:26:29.957Z,12.50
2018-03-24T14:28:58.345Z,12.40
2018-03-24T14:31:25.993Z,12.40
2018-03-24T14:33:53.592Z,12.40
2018-03-24T14:36:24.477Z,12.30
2018-03-24T14:38:52.098Z,12.20
2018-03-24T14:41:19.722Z,12.20
2018-03-24T14:43:47.340Z,12.40
2018-03-24T14:46:15.185Z,12.60
2018-03-24T14:48:44.767Z,12.60
2018-03-24T14:51:12.385Z,12.50
2018-03-24T14:53:45.625Z,12.60
2018-03-24T14:56:14.017Z,13.00
2018-03-24T14:58:54.473Z,13.00
2018-03-24T15:01:22.110Z,12.80
2018-03-24T15:04:04.064Z,12.50
2018-03-24T15:06:32.602Z,12.40
2018-03-24T15:09:07.625Z,12.10
2018-03-24T15:11:35.254Z,12.10
2018-03-24T15:14:02.878Z,11.90
2018-03-24T15:19:19.285Z,11.80
2018-03-24T15:21:46.921Z,11.70
2018-03-24T15:24:14.549Z,11.80
2018-03-24T15:26:42.172Z,11.90
2018-03-24T15:29:21.773Z,12.30
2018-03-24T15:32:01.176Z,12.60
2018-03-24T15:34:41.420Z,14.00
2018-03-24T15:37:09.040Z,14.00
2018-03-24T15:39:36.672Z,14.70
2018-03-24T15:42:05.064Z,14.70
2018-03-24T15:44:34.637Z,14.60
2018-03-24T15:47:02.262Z,14.60
2018-03-24T15:49:29.888Z,14.50
2018-03-24T15:51:58.272Z,13.60
2018-03-24T15:54:26.673Z,13.50
2018-03-24T15:56:55.056Z,13.40
2018-03-24T15:59:22.677Z,13.30
2018-03-24T16:02:00.694Z,13.30
2018-03-24T16:04:28.289Z,13.10
2018-03-24T16:06:55.909Z,12.80
2018-03-24T16:09:23.533Z,12.70
2018-03-24T16:14:25.098Z,12.80
2018-03-24T16:16:52.735Z,12.80
2018-03-24T16:19:21.129Z,12.20
2018-03-24T16:21:48.761Z,12.10
2018-03-24T16:24:16.381Z,11.80
2018-03-24T16:26:44.002Z,11.80
2018-03-24T16:29:11.673Z,11.90
2018-03-24T16:31:39.284Z,11.80
2018-03-24T16:34:06.916Z,11.60
2018-03-24T16:36:34.536Z,11.40
2018-03-24T16:39:02.157Z,11.40
2018-03-24T16:41:30.549Z,11.20
2018-03-24T16:43:58.936Z,11.10
2018-03-24T16:46:26.553Z,11.10
2018-03-24T16:48:54.176Z,11.10
2018-03-24T16:51:21.796Z,11.10
2018-03-24T16:53:49.420Z,11.10
2018-03-24T16:56:17.040Z,11.10
2018-03-24T16:58:44.731Z,11.20
2018-03-24T17:01:12.355Z,11.10
2018-03-24T17:03:39.976Z,11.00
2018-03-24T17:06:07.609Z,11.00
2018-03-24T17:08:35.248Z,10.90
2018-03-24T17:13:51.776Z,10.70
2018-03-24T17:16:19.400Z,10.60
2018-03-24T17:18:47.064Z,10.60
2018-03-24T17:21:20.818Z,10.40
2018-03-24T17:23:54.300Z,10.40
2018-03-24T17:26:23.930Z,10.30
2018-03-24T17:28:51.566Z,10.30
2018-03-24T17:31:25.265Z,10.20
2018-03-24T17:33:52.894Z,10.10
2018-03-24T17:36:21.288Z,10.00
2018-03-24T17:38:52.809Z,10.00
2018-03-24T17:41:20.438Z,9.90
2018-03-24T17:43:48.069Z,9.80
2018-03-24T17:46:15.701Z,9.80
2018-03-24T17:48:45.293Z,9.60
2018-03-24T17:51:13.167Z,9.60
2018-03-24T17:53:40.784Z,9.50
2018-03-24T17:56:08.425Z,9.40
2018-03-24T17:58:36.042Z,9.30
2018-03-24T18:01:03.657Z,9.20
2018-03-24T18:03:32.040Z,9.00
2018-03-24T18:05:59.670Z,9.00
2018-03-24T18:08:27.292Z,8.90
2018-03-24T18:10:54.925Z,9.00
2018-03-24T18:13:22.542Z,8.90
2018-03-24T18:15:50.173Z,8.90
2018-03-24T18:18:35.241Z,8.80
2018-03-24T18:21:03.627Z,8.70
2018-03-24T18:26:18.501Z,8.70
2018-03-24T18:28:46.888Z,8.70
2018-03-24T18:31:15.276Z,8.50
2018-03-24T18:33:43.669Z,8.50
2018-03-24T18:36:12.057Z,8.50
2018-03-24T18:38:39.685Z,8.40
2018-03-24T18:41:07.320Z,8.40
2018-03-24T18:43:35.017Z,8.30
2018-03-24T18:46:02.643Z,8.20
2018-03-24T18:48:30.369Z,8.20
2018-03-24T18:50:58.764Z,7.90
2018-03-24T18:53:27.169Z,8.00
2018-03-24T18:55:54.801Z,8.00
2018-03-24T18:58:23.201Z,7.70
2018-03-24T19:00:50.830Z,7.70
2018-03-24T19:03:18.448Z,7.50
2018-03-24T19:05:46.073Z,7.40
2018-03-24T19:08:14.515Z,7.40
2018-03-24T19:10:42.856Z,7.30
2018-03-24T19:13:11.245Z,7.20
2018-03-24T19:15:39.632Z,7.20
2018-03-24T19:18:07.266Z,7.20
2018-03-24T19:20:34.886Z,7.10
2018-03-24T19:23:02.512Z,6.90
2018-03-24T19:25:30.144Z,6.90
2018-03-24T19:27:57.772Z,6.80
2018-03-24T19:30:25.393Z,6.80
2018-03-24T19:32:53.020Z,6.80
2018-03-24T19:35:20.659Z,6.70
2018-03-24T19:37:48.275Z,6.60
2018-03-24T19:40:15.892Z,6.60
2018-03-24T19:42:43.528Z,6.60
2018-03-24T19:45:11.912Z,6.40
2018-03-24T19:47:39.541Z,6.40
2018-03-24T19:50:18.048Z,6.30
2018-03-24T19:52:45.673Z,6.20
2018-03-24T19:55:14.064Z,6.00
2018-03-24T19:57:41.702Z,6.00
2018-03-24T20:00:09.314Z,6.00
2018-03-24T20:02:36.945Z,5.90
2018-03-24T20:05:04.569Z,5.90
2018-03-24T20:07:32.196Z,5.90
2018-03-24T20:09:59.817Z,5.70
2018-03-24T20:12:27.445Z,5.70
2018-03-24T20:14:55.072Z,5.40
2018-03-24T20:17:22.906Z,5.40
2018-03-24T20:19:50.621Z,5.30
2018-03-24T20:22:19.010Z,5.40
2018-03-24T20:24:47.406Z,5.20
2018-03-24T20:27:15.034Z,5.20
2018-03-24T20:29:42.648Z,5.20
2018-03-24T20:32:10.271Z,5.20
2018-03-24T20:34:37.906Z,5.30
2018-03-24T20:37:05.528Z,5.20
2018-03-24T20:39:33.929Z,5.20
2018-03-24T20:42:01.545Z,5.20
2018-03-24T20:44:29.164Z,5.10
2018-03-24T20:46:56.788Z,5.10
2018-03-24T20:49:25.185Z,5.00
2018-03-24T20:51:53.561Z,4.90
2018-03-24T20:54:21.949Z,4.80
2018-03-24T20:56:50.332Z,4.60
2018-03-24T20:59:18.725Z,4.50
2018-03-24T21:01:46.348Z,4.50
2018-03-24T21:04:13.978Z,4.50
2018-03-24T21:06:41.596Z,4.30
2018-03-24T21:09:09.224Z,4.20
2018-03-24T21:11:36.852Z,4.10
2018-03-24T21:14:05.245Z,4.00
2018-03-24T21:16:32.872Z,4.00
2018-03-24T21:19:02.000Z,3.80
2018-03-24T21:21:29.620Z,3.80
2018-03-24T21:23:57.249Z,3.80
2018-03-24T21:26:24.877Z,3.80
2018-03-24T21:29:08.417Z,3.70
2018-03-24T21:31:36.852Z,3.70
2018-03-24T21:34:04.550Z,3.70
2018-03-24T21:36:32.836Z,3.70
2018-03-24T21:39:06.740Z,3.70
2018-03-24T21:41:35.814Z,3.60
2018-03-24T21:44:05.530Z,3.60
2018-03-24T21:46:34.705Z,3.50
2018-03-24T21:49:03.442Z,3.40
2018-03-24T21:51:32.216Z,3.40
2018-03-24T21:54:04.061Z,3.30
2018-03-24T21:56:34.050Z,3.30
2018-03-24T21:59:05.504Z,3.20
2018-03-24T22:01:35.951Z,3.10
2018-03-24T22:04:04.431Z,3.20
2018-03-24T22:06:33.988Z,3.10
2018-03-24T22:09:03.630Z,3.10
2018-03-24T22:11:32.557Z,3.00
2018-03-24T22:14:01.500Z,3.00
2018-03-24T22:16:29.440Z,3.00
2018-03-24T22:18:57.044Z,3.00
2018-03-24T22:21:24.665Z,2.90
2018-03-24T22:23:52.289Z,2.90
2018-03-24T22:26:20.687Z,2.70
2018-03-24T22:28:48.310Z,2.70
2018-03-24T22:31:15.942Z,2.70
2018-03-24T22:33:43.568Z,2.70
2018-03-24T22:36:11.969Z,2.70
2018-03-24T22:38:39.596Z,2.60
2018-03-24T22:41:07.212Z,2.60
2018-03-24T22:43:34.880Z,2.70
2018-03-24T22:46:02.464Z,2.60
2018-03-24T22:48:30.085Z,2.60
2018-03-24T22:50:58.489Z,2.60
2018-03-24T22:53:26.120Z,2.50
2018-03-24T22:55:53.750Z,2.50
2018-03-24T22:58:21.365Z,2.50
2018-03-24T23:00:54.786Z,2.50
2018-03-24T23:03:23.156Z,2.40
2018-03-24T23:05:50.782Z,2.40
2018-03-24T23:08:18.408Z,2.50
2018-03-24T23:10:46.025Z,2.60
2018-03-24T23:13:15.160Z,2.50
2018-03-24T23:15:42.797Z,2.50
2018-03-24T23:18:10.420Z,2.60
2018-03-24T23:20:38.051Z,2.60
2018-03-24T23:23:06.439Z,2.50
2018-03-24T23:25:34.066Z,2.50
2018-03-24T23:28:01.854Z,2.40
2018-03-24T23:30:29.466Z,2.30
2018-03-24T23:32:57.093Z,2.10
2018-03-24T23:35:25.484Z,2.20
2018-03-24T23:37:53.872Z,2.20
2018-03-24T23:40:21.488Z,2.10
2018-03-24T23:42:49.185Z,2.20
2018-03-24T23:45:17.580Z,2.10
2018-03-24T23:47:45.975Z,2.00
2018-03-24T23:50:13.593Z,2.00
2018-03-24T23:52:41.214Z,2.00
2018-03-24T23:55:08.841Z,2.00
2018-03-24T23:57:36.464Z,1.80
